createdAt,value
2023-06-22T00:00:46.990Z,6.57
2023-06-22T00:01:50.379Z,5.71
2023-06-22T00:02:53.769Z,8.00
2023-06-22T00:03:57.179Z,7.57
2023-06-22T00:05:00.614Z,5.29
2023-06-22T00:06:04.111Z,6.14
2023-06-22T00:07:07.597Z,5.43
2023-06-22T00:08:11.193Z,5.57
2023-06-22T00:09:14.681Z,4.50
2023-06-22T00:10:18.065Z,6.00
2023-06-22T00:11:21.658Z,9.43
2023-06-22T00:12:25.014Z,10.29
2023-06-22T00:13:28.529Z,10.43
2023-06-22T00:14:32.120Z,6.33
2023-06-22T00:15:35.414Z,6.86
2023-06-22T00:16:38.929Z,5.86
2023-06-22T00:17:43.201Z,5.86
2023-06-22T00:18:46.697Z,10.50
2023-06-22T00:19:50.080Z,10.86
2023-06-22T00:20:53.569Z,7.00
2023-06-22T00:21:57.059Z,8.25
2023-06-22T00:23:00.236Z,9.00
2023-06-22T00:24:03.417Z,7.29
2023-06-22T00:26:25.655Z,7.00
2023-06-22T00:27:29.060Z,6.00
2023-06-22T00:28:32.436Z,6.00
2023-06-22T00:29:35.525Z,5.57
2023-06-22T00:30:38.725Z,5.86
2023-06-22T00:31:42.039Z,7.33
2023-06-22T00:32:45.402Z,6.00
2023-06-22T00:33:48.540Z,4.00
2023-06-22T00:34:51.636Z,4.33
2023-06-22T00:35:55.024Z,5.00
2023-06-22T00:36:58.152Z,4.86
2023-06-22T00:38:01.923Z,6.00
2023-06-22T00:39:05.447Z,3.62
2023-06-22T00:40:09.166Z,2.57
2023-06-22T00:41:12.565Z,2.43
2023-06-22T00:42:15.937Z,2.43
2023-06-22T00:43:19.445Z,2.43
2023-06-22T00:44:23.226Z,3.00
2023-06-22T00:45:26.636Z,3.14
2023-06-22T00:46:30.116Z,4.00
2023-06-22T00:47:33.641Z,3.14
2023-06-22T00:48:37.081Z,3.29
2023-06-22T00:49:40.565Z,3.57
2023-06-22T00:50:44.055Z,2.14
2023-06-22T00:51:47.337Z,0.57
2023-06-22T00:52:50.929Z,0.71
2023-06-22T00:53:54.370Z,2.50
2023-06-22T00:54:58.141Z,3.14
2023-06-22T00:56:01.408Z,2.71
2023-06-22T00:57:04.658Z,1.00
2023-06-22T00:58:07.872Z,1.00
2023-06-22T00:59:11.163Z,3.00
2023-06-22T01:00:14.364Z,5.33
2023-06-22T01:01:17.455Z,1.33
2023-06-22T01:02:20.694Z,3.29
2023-06-22T01:03:23.939Z,4.50
2023-06-22T01:04:27.077Z,2.00
2023-06-22T01:05:30.270Z,2.00
2023-06-22T01:06:33.527Z,1.57
2023-06-22T01:07:36.832Z,1.43
2023-06-22T01:08:40.100Z,2.00
2023-06-22T01:09:43.591Z,3.00
2023-06-22T01:10:47.072Z,2.14
2023-06-22T01:11:50.456Z,1.43
2023-06-22T01:12:54.932Z,4.00
2023-06-22T01:13:58.255Z,5.33
2023-06-22T01:15:01.650Z,3.57
2023-06-22T01:16:05.126Z,3.86
2023-06-22T01:17:08.628Z,3.71
2023-06-22T01:18:12.106Z,3.29
2023-06-22T01:19:15.517Z,5.00
2023-06-22T01:20:18.876Z,4.67
2023-06-22T01:21:22.144Z,4.43
2023-06-22T01:22:25.547Z,4.57
2023-06-22T01:23:29.038Z,4.43
2023-06-22T01:24:32.447Z,4.57
2023-06-22T01:25:35.831Z,4.00
2023-06-22T01:26:39.143Z,4.71
2023-06-22T01:27:42.443Z,5.00
2023-06-22T01:28:45.668Z,3.33
2023-06-22T01:29:49.014Z,2.33
2023-06-22T01:30:52.545Z,3.86
2023-06-22T01:31:55.925Z,5.00
2023-06-22T01:32:59.496Z,4.86
2023-06-22T01:34:02.914Z,5.86
2023-06-22T01:35:06.496Z,4.14
2023-06-22T01:36:09.748Z,3.43
2023-06-22T01:37:13.301Z,3.57
2023-06-22T01:38:16.561Z,3.86
2023-06-22T01:39:19.915Z,4.57
2023-06-22T01:40:23.231Z,4.00
2023-06-22T01:41:26.594Z,3.14
2023-06-22T01:42:29.904Z,3.29
2023-06-22T01:43:33.292Z,2.57
2023-06-22T01:44:36.683Z,2.00
2023-06-22T01:45:40.173Z,1.57
2023-06-22T01:46:44.618Z,1.00
2023-06-22T01:47:47.928Z,1.00
2023-06-22T01:48:51.254Z,0.00
2023-06-22T01:49:57.826Z,0.00
2023-06-22T01:51:01.293Z,0.50
2023-06-22T01:52:04.577Z,0.57
2023-06-22T01:53:07.861Z,0.57
2023-06-22T01:54:11.243Z,1.00
2023-06-22T01:55:14.337Z,1.00
2023-06-22T01:56:17.522Z,0.71
2023-06-22T01:57:20.712Z,1.00
2023-06-22T01:58:23.920Z,1.00
2023-06-22T01:59:26.929Z,1.00
2023-06-22T02:00:30.483Z,1.00
2023-06-22T02:01:33.900Z,0.57
2023-06-22T02:02:37.278Z,1.71
2023-06-22T02:03:40.777Z,2.00
2023-06-22T02:04:43.994Z,2.12
2023-06-22T02:05:47.211Z,2.14
2023-06-22T02:06:50.657Z,1.50
2023-06-22T02:07:53.805Z,0.57
2023-06-22T02:08:57.026Z,0.57
2023-06-22T02:10:00.620Z,1.57
2023-06-22T02:11:05.035Z,1.00
2023-06-22T02:12:08.532Z,1.29
2023-06-22T02:13:11.904Z,1.00
2023-06-22T02:14:15.804Z,1.00
2023-06-22T02:15:19.787Z,1.25
2023-06-22T02:16:23.190Z,1.00
2023-06-22T02:17:26.680Z,1.00
2023-06-22T02:18:30.173Z,1.00
2023-06-22T02:19:36.519Z,1.14
2023-06-22T02:20:39.709Z,1.25
2023-06-22T02:21:43.094Z,1.67
2023-06-22T02:22:46.485Z,2.57
2023-06-22T02:23:49.833Z,1.00
2023-06-22T02:24:53.414Z,0.71
2023-06-22T02:25:56.640Z,1.43
2023-06-22T02:27:05.631Z,2.14
2023-06-22T02:28:08.792Z,1.87
2023-06-22T02:29:11.916Z,1.00
2023-06-22T02:30:15.096Z,1.00
2023-06-22T02:31:18.452Z,1.00
2023-06-22T02:32:21.583Z,1.00
2023-06-22T02:33:24.781Z,1.83
2023-06-22T02:34:27.928Z,3.00
2023-06-22T02:35:31.115Z,2.57
2023-06-22T02:36:34.308Z,1.57
2023-06-22T02:37:37.918Z,1.86
2023-06-22T02:38:41.074Z,2.14
2023-06-22T02:39:44.269Z,1.57
2023-06-22T02:40:47.634Z,1.00
2023-06-22T02:41:50.917Z,1.86
2023-06-22T02:42:54.211Z,2.14
2023-06-22T02:43:57.489Z,1.43
2023-06-22T02:45:00.772Z,1.14
2023-06-22T02:46:03.972Z,1.43
2023-06-22T02:47:13.385Z,2.00
2023-06-22T02:48:16.607Z,2.00
2023-06-22T02:49:19.860Z,2.00
2023-06-22T02:50:23.241Z,1.57
2023-06-22T02:51:26.530Z,1.43
2023-06-22T02:52:29.721Z,2.33
2023-06-22T02:53:33.023Z,3.43
2023-06-22T02:54:36.378Z,4.43
2023-06-22T02:55:39.524Z,4.67
2023-06-22T02:56:43.283Z,4.00
2023-06-22T02:57:46.431Z,3.14
2023-06-22T02:58:49.614Z,2.00
2023-06-22T02:59:52.728Z,2.14
2023-06-22T03:00:55.963Z,2.67
2023-06-22T03:01:59.260Z,2.33
2023-06-22T03:03:02.525Z,1.50
2023-06-22T03:04:05.880Z,0.67
2023-06-22T03:05:09.016Z,2.00
2023-06-22T03:06:12.400Z,2.00
2023-06-22T03:07:15.596Z,1.57
2023-06-22T03:08:18.763Z,1.00
2023-06-22T03:09:22.042Z,1.33
2023-06-22T03:10:25.332Z,1.67
2023-06-22T03:11:28.516Z,2.00
2023-06-22T03:12:31.701Z,2.33
2023-06-22T03:13:34.792Z,2.14
2023-06-22T03:14:38.059Z,1.43
2023-06-22T03:15:41.236Z,1.00
2023-06-22T03:16:44.419Z,1.00
2023-06-22T03:17:47.618Z,1.43
2023-06-22T03:18:50.897Z,1.00
2023-06-22T03:19:54.297Z,1.00
2023-06-22T03:20:57.374Z,1.71
2023-06-22T03:22:00.446Z,2.00
2023-06-22T03:23:03.858Z,2.00
2023-06-22T03:24:06.905Z,2.33
2023-06-22T03:25:10.090Z,2.33
2023-06-22T03:26:13.158Z,1.33
2023-06-22T03:27:16.458Z,1.57
2023-06-22T03:28:19.735Z,1.86
2023-06-22T03:29:22.923Z,2.43
2023-06-22T03:30:26.313Z,2.14
2023-06-22T03:31:29.603Z,1.29
2023-06-22T03:32:33.075Z,1.43
2023-06-22T03:33:36.144Z,2.00
2023-06-22T03:34:39.326Z,2.00
2023-06-22T03:35:42.574Z,1.57
2023-06-22T03:36:45.915Z,1.43
2023-06-22T03:37:49.180Z,2.00
2023-06-22T03:38:52.266Z,1.57
2023-06-22T03:39:55.457Z,2.14
2023-06-22T03:40:58.788Z,3.33
2023-06-22T03:42:01.942Z,2.43
2023-06-22T03:43:05.001Z,1.33
2023-06-22T03:44:08.311Z,2.00
2023-06-22T03:45:11.468Z,2.57
2023-06-22T03:46:14.665Z,2.29
2023-06-22T03:47:18.032Z,2.00
2023-06-22T03:48:21.205Z,2.00
2023-06-22T03:49:24.396Z,1.57
2023-06-22T03:50:27.976Z,1.71
2023-06-22T03:51:31.365Z,1.57
2023-06-22T03:52:34.649Z,1.00
2023-06-22T03:53:37.745Z,2.14
2023-06-22T03:54:41.018Z,2.43
2023-06-22T03:55:44.398Z,1.43
2023-06-22T03:56:47.683Z,1.57
2023-06-22T03:57:50.879Z,1.43
2023-06-22T03:58:54.164Z,2.00
2023-06-22T03:59:57.438Z,2.00
2023-06-22T04:01:00.721Z,2.57
2023-06-22T04:02:03.807Z,3.14
2023-06-22T04:03:07.059Z,1.57
2023-06-22T04:04:10.498Z,1.43
2023-06-22T04:05:13.838Z,2.00
2023-06-22T04:06:17.144Z,1.86
2023-06-22T04:07:20.258Z,1.00
2023-06-22T04:08:23.613Z,1.86
2023-06-22T04:09:26.891Z,2.57
2023-06-22T04:10:30.284Z,1.57
2023-06-22T04:11:33.670Z,1.86
2023-06-22T04:12:36.964Z,2.14
2023-06-22T04:13:40.227Z,1.43
2023-06-22T04:14:43.342Z,1.57
2023-06-22T04:15:46.420Z,1.33
2023-06-22T04:16:49.469Z,1.00
2023-06-22T04:17:52.692Z,1.71
2023-06-22T04:18:55.933Z,2.29
2023-06-22T04:19:59.137Z,2.00
2023-06-22T04:21:02.341Z,2.57
2023-06-22T04:22:05.784Z,2.43
2023-06-22T04:23:09.199Z,1.43
2023-06-22T04:24:12.356Z,1.71
2023-06-22T04:25:15.645Z,1.43
2023-06-22T04:26:18.890Z,2.29
2023-06-22T04:27:22.104Z,2.00
2023-06-22T04:28:27.827Z,1.43
2023-06-22T04:29:30.113Z,2.00
2023-06-22T04:30:33.496Z,1.57
2023-06-22T04:31:36.614Z,2.43
2023-06-22T04:32:39.767Z,2.14
2023-06-22T04:33:42.939Z,1.00
2023-06-22T04:34:46.032Z,1.43
2023-06-22T04:35:48.994Z,2.33
2023-06-22T04:36:52.294Z,1.86
2023-06-22T04:37:55.355Z,2.00
2023-06-22T04:38:58.555Z,2.00
2023-06-22T04:40:01.751Z,1.29
2023-06-22T04:41:07.593Z,1.33
2023-06-22T04:42:10.701Z,1.75
2023-06-22T04:43:13.941Z,1.43
2023-06-22T04:44:17.315Z,2.00
2023-06-22T04:45:20.728Z,2.00
2023-06-22T04:46:23.796Z,1.57
2023-06-22T04:47:27.000Z,1.71
2023-06-22T04:48:30.351Z,2.14
2023-06-22T04:49:33.534Z,2.29
2023-06-22T04:50:36.717Z,3.57
2023-06-22T04:51:39.891Z,3.33
2023-06-22T04:52:42.992Z,2.67
2023-06-22T04:53:46.175Z,2.00
2023-06-22T04:54:49.418Z,2.14
2023-06-22T04:55:52.530Z,2.57
2023-06-22T04:56:55.614Z,2.00
2023-06-22T04:57:58.930Z,2.33
2023-06-22T04:59:02.068Z,2.57
2023-06-22T05:00:05.152Z,2.86
2023-06-22T05:01:08.334Z,3.14
2023-06-22T05:02:11.524Z,2.00
2023-06-22T05:03:19.837Z,1.86
2023-06-22T05:04:19.125Z,2.00
2023-06-22T05:05:22.664Z,2.86
2023-06-22T05:06:25.978Z,3.14
2023-06-22T05:07:29.075Z,2.00
2023-06-22T05:08:32.454Z,2.29
2023-06-22T05:09:35.383Z,1.57
2023-06-22T05:10:39.964Z,1.43
2023-06-22T05:11:42.871Z,2.50
2023-06-22T05:12:46.108Z,2.00
2023-06-22T05:13:49.487Z,1.86
2023-06-22T05:14:52.778Z,1.67
2023-06-22T05:15:55.878Z,2.67
2023-06-22T05:16:59.049Z,1.67
2023-06-22T05:18:02.380Z,1.43
2023-06-22T05:19:05.522Z,2.00
2023-06-22T05:20:08.677Z,1.57
2023-06-22T05:21:12.169Z,1.00
2023-06-22T05:22:15.484Z,1.43
2023-06-22T05:23:18.640Z,2.57
2023-06-22T05:24:21.808Z,2.29
2023-06-22T05:25:24.998Z,1.83
2023-06-22T05:26:28.143Z,2.33
2023-06-22T05:27:31.360Z,2.14
2023-06-22T05:28:34.764Z,1.43
2023-06-22T05:29:38.144Z,2.00
2023-06-22T05:30:41.645Z,2.00
2023-06-22T05:31:44.912Z,2.00
2023-06-22T05:32:48.247Z,2.43
2023-06-22T05:33:51.474Z,2.14
2023-06-22T05:34:54.860Z,1.43
2023-06-22T05:35:58.552Z,1.29
2023-06-22T05:37:01.837Z,1.50
2023-06-22T05:38:05.238Z,2.00
2023-06-22T05:39:09.745Z,2.43
2023-06-22T05:40:13.188Z,2.12
2023-06-22T05:41:16.716Z,1.00
2023-06-22T05:42:20.341Z,1.86
2023-06-22T05:43:23.371Z,2.50
2023-06-22T05:44:26.784Z,2.00
2023-06-22T05:45:29.926Z,2.00
2023-06-22T05:46:33.140Z,3.33
2023-06-22T05:47:36.344Z,2.86
2023-06-22T05:48:39.414Z,1.86
2023-06-22T05:49:42.632Z,3.00
2023-06-22T05:50:45.777Z,4.00
2023-06-22T05:51:48.979Z,3.83
2023-06-22T05:52:52.128Z,3.14
2023-06-22T05:53:55.357Z,2.43
2023-06-22T05:54:58.497Z,3.00
2023-06-22T05:56:01.659Z,2.86
2023-06-22T05:57:04.861Z,3.83
2023-06-22T05:58:08.138Z,3.57
2023-06-22T05:59:11.226Z,2.29
2023-06-22T06:00:14.312Z,2.86
2023-06-22T06:01:17.539Z,4.33
2023-06-22T06:02:20.673Z,4.00
2023-06-22T06:03:23.793Z,3.57
2023-06-22T06:04:27.420Z,2.43
2023-06-22T06:05:30.927Z,3.00
2023-06-22T06:06:34.317Z,3.00
2023-06-22T06:07:37.652Z,3.33
2023-06-22T06:08:40.972Z,3.57
2023-06-22T06:09:44.260Z,4.00
2023-06-22T06:10:47.549Z,6.00
2023-06-22T06:11:50.887Z,5.14
2023-06-22T06:12:54.114Z,3.86
2023-06-22T06:13:57.530Z,4.29
2023-06-22T06:15:00.899Z,3.57
2023-06-22T06:16:04.477Z,3.00
2023-06-22T06:17:07.851Z,3.43
2023-06-22T06:18:11.382Z,3.86
2023-06-22T06:19:14.885Z,3.00
2023-06-22T06:20:18.336Z,3.43
2023-06-22T06:21:21.612Z,4.57
2023-06-22T06:22:24.974Z,4.00
2023-06-22T06:23:28.313Z,4.00
2023-06-22T06:24:31.573Z,3.57
2023-06-22T06:25:34.958Z,3.86
2023-06-22T06:26:38.620Z,4.57
2023-06-22T06:27:42.724Z,4.75
2023-06-22T06:28:46.258Z,6.86
2023-06-22T06:29:49.877Z,7.57
2023-06-22T06:30:53.186Z,6.71
2023-06-22T06:31:56.579Z,6.57
2023-06-22T06:33:00.045Z,6.86
2023-06-22T06:34:03.606Z,7.00
2023-06-22T06:35:07.007Z,8.71
2023-06-22T06:36:10.481Z,8.43
2023-06-22T06:37:13.964Z,5.00
2023-06-22T06:38:17.355Z,5.71
2023-06-22T06:39:20.865Z,6.57
2023-06-22T06:40:24.428Z,5.57
2023-06-22T06:41:28.026Z,7.29
2023-06-22T06:42:31.407Z,8.43
2023-06-22T06:43:34.892Z,7.71
2023-06-22T06:44:38.154Z,7.29
2023-06-22T06:45:41.588Z,7.86
2023-06-22T06:46:45.035Z,7.71
2023-06-22T06:47:48.374Z,9.00
2023-06-22T06:48:51.938Z,6.71
2023-06-22T06:49:55.223Z,8.00
2023-06-22T06:50:58.500Z,8.43
2023-06-22T06:52:01.776Z,9.00
2023-06-22T06:53:05.080Z,8.14
2023-06-22T06:54:08.250Z,6.57
2023-06-22T06:55:11.530Z,7.29
2023-06-22T06:56:14.778Z,9.43
2023-06-22T06:57:17.790Z,10.33
2023-06-22T06:58:20.985Z,11.14
2023-06-22T06:59:24.345Z,10.43
2023-06-22T07:00:27.641Z,9.29
2023-06-22T07:01:31.583Z,7.00
2023-06-22T07:02:34.790Z,7.83
2023-06-22T07:03:38.033Z,9.67
2023-06-22T07:04:41.279Z,7.43
2023-06-22T07:05:44.436Z,7.14
2023-06-22T07:06:47.908Z,7.86
2023-06-22T07:07:51.216Z,8.14
2023-06-22T07:08:54.601Z,8.43
2023-06-22T07:09:57.811Z,11.43
2023-06-22T07:11:01.200Z,11.86
2023-06-22T07:12:04.497Z,9.86
2023-06-22T07:13:07.877Z,9.71
2023-06-22T07:14:11.394Z,9.00
2023-06-22T07:15:14.849Z,7.00
2023-06-22T07:16:18.166Z,9.86
2023-06-22T07:17:21.734Z,11.29
2023-06-22T07:18:25.014Z,10.14
2023-06-22T07:19:28.292Z,10.29
2023-06-22T07:20:31.553Z,10.14
2023-06-22T07:21:34.975Z,9.43
2023-06-22T07:22:38.578Z,10.29
2023-06-22T07:23:41.892Z,12.14
2023-06-22T07:24:45.356Z,11.86
2023-06-22T07:25:48.725Z,11.00
2023-06-22T07:26:52.207Z,12.57
2023-06-22T07:27:55.592Z,11.14
2023-06-22T07:28:58.898Z,10.43
2023-06-22T07:30:02.270Z,10.71
2023-06-22T07:31:05.735Z,10.57
2023-06-22T07:32:09.111Z,11.00
2023-06-22T07:33:12.411Z,10.86
2023-06-22T07:34:15.714Z,11.43
2023-06-22T07:35:19.004Z,11.14
2023-06-22T07:36:22.179Z,10.29
2023-06-22T07:37:26.160Z,11.43
2023-06-22T07:38:29.468Z,12.86
2023-06-22T07:39:32.534Z,12.14
2023-06-22T07:40:35.822Z,11.14
2023-06-22T07:41:39.218Z,11.57
2023-06-22T07:42:42.301Z,11.57
2023-06-22T07:43:45.549Z,11.00
2023-06-22T07:44:48.761Z,11.00
2023-06-22T07:45:51.947Z,11.00
2023-06-22T07:46:55.031Z,12.00
2023-06-22T07:47:58.145Z,11.57
2023-06-22T07:49:01.309Z,10.71
2023-06-22T07:50:04.600Z,11.00
2023-06-22T07:51:07.844Z,11.00
2023-06-22T07:52:11.029Z,11.14
2023-06-22T07:53:14.415Z,12.57
2023-06-22T07:54:17.513Z,12.57
2023-06-22T07:55:20.579Z,11.14
2023-06-22T07:56:23.872Z,10.83
2023-06-22T07:57:26.848Z,12.14
2023-06-22T07:58:29.913Z,10.43
2023-06-22T07:59:33.099Z,10.57
2023-06-22T08:00:36.076Z,9.67
2023-06-22T08:01:39.227Z,11.43
2023-06-22T08:02:42.679Z,11.57
2023-06-22T08:03:45.867Z,12.43
2023-06-22T08:04:49.138Z,12.67
2023-06-22T08:05:52.306Z,11.57
2023-06-22T08:06:55.683Z,11.00
2023-06-22T08:07:58.826Z,10.14
2023-06-22T08:09:01.946Z,10.29
2023-06-22T08:10:05.094Z,12.00
2023-06-22T08:11:08.120Z,13.50
2023-06-22T08:12:11.381Z,13.71
2023-06-22T08:13:14.475Z,12.71
2023-06-22T08:14:17.644Z,13.33
2023-06-22T08:15:20.819Z,12.57
2023-06-22T08:16:23.803Z,14.14
2023-06-22T08:17:27.058Z,13.67
2023-06-22T08:18:30.172Z,13.57
2023-06-22T08:19:33.449Z,12.43
2023-06-22T08:20:36.536Z,12.86
2023-06-22T08:21:39.812Z,12.43
2023-06-22T08:22:42.981Z,12.57
2023-06-22T08:23:46.402Z,12.57
2023-06-22T08:24:49.587Z,12.71
2023-06-22T08:25:52.753Z,12.33
2023-06-22T08:26:55.821Z,13.71
2023-06-22T08:27:59.015Z,13.57
2023-06-22T08:29:02.192Z,13.00
2023-06-22T08:30:05.394Z,13.00
2023-06-22T08:31:08.491Z,13.83
2023-06-22T08:32:11.742Z,13.29
2023-06-22T08:33:19.835Z,11.00
2023-06-22T08:34:19.435Z,12.37
2023-06-22T08:35:22.513Z,13.00
2023-06-22T08:36:25.608Z,16.57
2023-06-22T08:37:28.983Z,16.71
2023-06-22T08:38:31.971Z,14.14
2023-06-22T08:39:36.133Z,14.33
2023-06-22T08:40:39.372Z,17.62
2023-06-22T08:41:42.624Z,17.00
2023-06-22T08:42:45.819Z,17.86
2023-06-22T08:43:48.907Z,18.00
2023-06-22T08:44:52.069Z,17.57
2023-06-22T08:45:55.251Z,18.29
2023-06-22T08:46:58.857Z,20.00
2023-06-22T08:48:02.279Z,20.57
2023-06-22T08:49:05.640Z,21.57
2023-06-22T08:50:09.027Z,21.00
2023-06-22T08:51:12.287Z,19.71
2023-06-22T08:52:15.568Z,18.14
2023-06-22T08:53:19.052Z,15.71
2023-06-22T08:54:22.243Z,15.86
2023-06-22T08:55:25.555Z,14.71
2023-06-22T08:56:28.718Z,13.00
2023-06-22T08:57:31.890Z,13.43
2023-06-22T08:58:35.278Z,15.00
2023-06-22T08:59:38.563Z,14.71
2023-06-22T09:00:41.758Z,14.00
2023-06-22T09:01:45.036Z,11.43
2023-06-22T09:02:48.243Z,12.00
2023-06-22T09:03:52.004Z,12.33
2023-06-22T09:04:55.540Z,10.71
2023-06-22T09:05:59.138Z,11.43
2023-06-22T09:07:02.879Z,12.29
2023-06-22T09:08:06.370Z,11.75
2023-06-22T09:09:09.864Z,11.00
2023-06-22T09:10:13.658Z,11.86
2023-06-22T09:11:18.070Z,12.25
2023-06-22T09:12:21.569Z,11.63
2023-06-22T09:13:24.948Z,12.57
2023-06-22T09:14:28.054Z,16.14
2023-06-22T09:15:33.161Z,14.00
2023-06-22T09:16:36.662Z,14.50
2023-06-22T09:17:40.401Z,14.71
2023-06-22T09:18:43.719Z,13.00
2023-06-22T09:19:47.200Z,13.71
2023-06-22T09:20:50.600Z,12.86
2023-06-22T09:21:54.090Z,12.71
2023-06-22T09:22:57.372Z,15.13
2023-06-22T09:24:00.759Z,15.33
2023-06-22T09:25:05.733Z,14.33
2023-06-22T09:26:08.645Z,14.38
2023-06-22T09:27:12.150Z,14.29
2023-06-22T09:28:15.228Z,13.14
2023-06-22T09:29:18.425Z,11.00
2023-06-22T09:30:21.503Z,11.43
2023-06-22T09:31:24.585Z,12.33
2023-06-22T09:32:27.790Z,12.71
2023-06-22T09:33:30.900Z,11.14
2023-06-22T09:34:34.018Z,11.29
2023-06-22T09:35:37.221Z,12.50
2023-06-22T09:36:40.307Z,12.43
2023-06-22T09:37:43.276Z,14.00
2023-06-22T09:38:46.452Z,12.57
2023-06-22T09:39:49.625Z,11.57
2023-06-22T09:40:52.994Z,11.33
2023-06-22T09:41:56.072Z,12.00
2023-06-22T09:42:59.463Z,13.14
2023-06-22T09:44:02.550Z,13.86
2023-06-22T09:45:05.725Z,12.00
2023-06-22T09:46:08.821Z,13.33
2023-06-22T09:47:11.922Z,13.86
2023-06-22T09:48:14.964Z,14.14
2023-06-22T09:49:18.040Z,12.33
2023-06-22T09:50:21.126Z,14.00
2023-06-22T09:51:24.294Z,16.43
2023-06-22T09:52:34.253Z,15.14
2023-06-22T09:53:31.528Z,13.75
2023-06-22T09:54:37.348Z,12.67
2023-06-22T09:55:40.524Z,10.75
2023-06-22T09:56:43.645Z,11.33
2023-06-22T09:57:46.807Z,12.86
2023-06-22T09:58:49.963Z,14.71
2023-06-22T09:59:53.047Z,11.50
2023-06-22T10:00:56.281Z,11.43
2023-06-22T10:01:59.619Z,11.29
2023-06-22T10:03:02.777Z,12.71
2023-06-22T10:04:06.234Z,14.14
2023-06-22T10:05:09.693Z,10.86
2023-06-22T10:06:13.059Z,11.14
2023-06-22T10:07:16.141Z,9.57
2023-06-22T10:08:19.412Z,9.33
2023-06-22T10:09:22.562Z,10.86
2023-06-22T10:10:25.711Z,11.43
2023-06-22T10:11:28.822Z,10.43
2023-06-22T10:12:33.598Z,10.67
2023-06-22T10:13:37.196Z,10.88
2023-06-22T10:14:40.561Z,10.57
2023-06-22T10:15:43.651Z,10.29
2023-06-22T10:16:47.024Z,9.29
2023-06-22T10:17:50.645Z,9.57
2023-06-22T10:18:54.000Z,10.43
2023-06-22T10:19:57.276Z,10.43
2023-06-22T10:21:04.000Z,10.00
2023-06-22T10:22:07.635Z,9.25
2023-06-22T10:23:11.275Z,8.67
2023-06-22T10:24:14.587Z,10.00
2023-06-22T10:25:17.925Z,8.86
2023-06-22T10:26:21.112Z,10.00
2023-06-22T10:27:24.370Z,9.83
2023-06-22T10:28:27.553Z,8.33
2023-06-22T10:29:30.760Z,10.29
2023-06-22T10:30:34.050Z,12.00
2023-06-22T10:31:37.211Z,12.86
2023-06-22T10:32:40.607Z,12.57
2023-06-22T10:33:44.073Z,12.71
2023-06-22T10:34:47.094Z,12.57
2023-06-22T10:35:50.395Z,11.33
2023-06-22T10:36:53.516Z,12.86
2023-06-22T10:37:56.487Z,13.00
2023-06-22T10:38:59.728Z,12.43
2023-06-22T10:40:02.844Z,12.00
2023-06-22T10:41:06.048Z,11.67
2023-06-22T10:42:09.217Z,12.00
2023-06-22T10:43:12.409Z,12.86
2023-06-22T10:44:16.712Z,11.71
2023-06-22T10:45:20.160Z,11.00
2023-06-22T10:46:23.518Z,11.57
2023-06-22T10:47:26.825Z,10.29
2023-06-22T10:48:30.157Z,11.86
2023-06-22T10:49:33.751Z,11.71
2023-06-22T10:50:37.039Z,11.25
2023-06-22T10:51:40.527Z,12.86
2023-06-22T10:52:43.917Z,13.00
2023-06-22T10:53:47.077Z,12.71
2023-06-22T10:54:50.501Z,15.67
2023-06-22T10:55:56.827Z,13.67
2023-06-22T10:56:57.880Z,12.14
2023-06-22T10:58:00.941Z,11.29
2023-06-22T10:59:04.059Z,11.29
2023-06-22T11:00:07.515Z,11.43
2023-06-22T11:01:19.755Z,12.43
2023-06-22T11:02:15.227Z,16.12
2023-06-22T11:03:18.643Z,16.71
2023-06-22T11:04:21.890Z,13.86
2023-06-22T11:05:25.047Z,15.83
2023-06-22T11:06:28.033Z,13.71
2023-06-22T11:07:31.209Z,11.86
2023-06-22T11:08:34.289Z,12.57
2023-06-22T11:09:37.330Z,15.00
2023-06-22T11:10:40.555Z,17.00
2023-06-22T11:11:43.745Z,12.00
2023-06-22T11:12:47.039Z,10.00
2023-06-22T11:13:51.542Z,11.14
2023-06-22T11:14:54.850Z,11.38
2023-06-22T11:15:58.224Z,11.00
2023-06-22T11:17:01.635Z,11.86
2023-06-22T11:18:04.895Z,13.00
2023-06-22T11:19:08.037Z,14.33
2023-06-22T11:20:11.338Z,14.14
2023-06-22T11:21:14.745Z,12.14
2023-06-22T11:22:18.026Z,13.29
2023-06-22T11:23:21.204Z,14.00
2023-06-22T11:24:24.285Z,14.43
2023-06-22T11:26:47.643Z,12.63
2023-06-22T11:27:50.607Z,12.43
2023-06-22T11:28:54.010Z,13.17
2023-06-22T11:29:57.386Z,14.29
2023-06-22T11:31:07.709Z,17.00
2023-06-22T11:32:05.235Z,17.00
2023-06-22T11:33:08.712Z,17.71
2023-06-22T11:34:11.864Z,15.57
2023-06-22T11:35:15.140Z,14.43
2023-06-22T11:36:18.307Z,13.86
2023-06-22T11:37:21.594Z,15.14
2023-06-22T11:38:24.795Z,13.50
2023-06-22T11:39:38.811Z,13.83
2023-06-22T11:40:32.493Z,15.38
2023-06-22T11:41:35.683Z,15.71
2023-06-22T11:42:39.074Z,15.00
2023-06-22T11:43:42.269Z,16.14
2023-06-22T11:44:45.437Z,16.57
2023-06-22T11:45:48.640Z,13.43
2023-06-22T11:46:51.710Z,14.57
2023-06-22T11:47:55.946Z,15.29
2023-06-22T11:48:58.916Z,13.29
2023-06-22T11:50:02.265Z,14.00
2023-06-22T11:51:05.125Z,12.00
2023-06-22T11:52:08.712Z,15.43
2023-06-22T11:53:12.102Z,17.71
2023-06-22T11:54:15.081Z,15.29
2023-06-22T11:55:18.164Z,14.17
2023-06-22T11:56:21.341Z,13.00
2023-06-22T11:57:24.525Z,14.71
2023-06-22T11:58:28.020Z,14.86
2023-06-22T11:59:31.092Z,16.71
2023-06-22T12:00:42.317Z,14.00
2023-06-22T12:01:38.697Z,15.00
2023-06-22T12:02:41.956Z,14.43
2023-06-22T12:03:45.179Z,15.00
2023-06-22T12:04:48.376Z,13.43
2023-06-22T12:05:51.647Z,15.00
2023-06-22T12:06:55.002Z,17.29
2023-06-22T12:07:58.302Z,15.71
2023-06-22T12:09:01.469Z,16.43
2023-06-22T12:10:04.568Z,17.71
2023-06-22T12:11:07.765Z,15.67
2023-06-22T12:12:11.039Z,17.67
2023-06-22T12:13:14.322Z,17.50
2023-06-22T12:14:17.353Z,15.33
2023-06-22T12:15:26.088Z,14.86
2023-06-22T12:16:29.270Z,16.50
2023-06-22T12:17:32.381Z,16.67
2023-06-22T12:18:35.547Z,17.14
2023-06-22T12:19:38.815Z,15.29
2023-06-22T12:20:42.068Z,16.14
2023-06-22T12:21:45.277Z,16.00
2023-06-22T12:22:48.438Z,16.14
2023-06-22T12:23:51.437Z,16.14
2023-06-22T12:24:54.715Z,14.29
2023-06-22T12:25:57.913Z,17.33
2023-06-22T12:27:01.114Z,18.00
2023-06-22T12:28:04.286Z,15.29
2023-06-22T12:29:07.585Z,13.57
2023-06-22T12:30:10.505Z,13.00
2023-06-22T12:31:13.761Z,16.17
2023-06-22T12:32:16.903Z,16.57
2023-06-22T12:33:19.891Z,15.00
2023-06-22T12:34:23.111Z,14.50
2023-06-22T12:35:26.272Z,14.86
2023-06-22T12:36:29.209Z,15.17
2023-06-22T12:37:32.402Z,15.71
2023-06-22T12:38:35.382Z,13.57
2023-06-22T12:39:38.781Z,12.71
2023-06-22T12:40:41.940Z,12.71
2023-06-22T12:41:45.068Z,13.00
2023-06-22T12:42:48.220Z,12.71
2023-06-22T12:43:51.380Z,12.86
2023-06-22T12:44:56.063Z,14.29
2023-06-22T12:45:58.790Z,11.00
2023-06-22T12:47:02.070Z,10.83
2023-06-22T12:48:05.288Z,12.14
2023-06-22T12:49:08.437Z,10.86
2023-06-22T12:50:11.548Z,10.29
2023-06-22T12:51:14.587Z,10.29
2023-06-22T12:52:17.766Z,10.00
2023-06-22T12:53:20.967Z,9.57
2023-06-22T12:54:24.056Z,10.29
2023-06-22T12:55:27.111Z,11.17
2023-06-22T12:56:30.301Z,9.71
2023-06-22T12:57:33.373Z,8.57
2023-06-22T12:58:36.569Z,10.43
2023-06-22T12:59:39.738Z,10.17
2023-06-22T13:00:42.821Z,10.71
2023-06-22T13:01:45.953Z,11.00
2023-06-22T13:02:49.125Z,10.67
2023-06-22T13:03:52.262Z,9.33
2023-06-22T13:04:55.372Z,8.43
2023-06-22T13:05:58.488Z,9.71
2023-06-22T13:07:01.609Z,11.17
2023-06-22T13:08:05.361Z,11.57
2023-06-22T13:09:20.600Z,11.50
2023-06-22T13:10:12.887Z,11.25
2023-06-22T13:11:16.178Z,11.57
2023-06-22T13:12:19.261Z,10.14
2023-06-22T13:13:23.043Z,11.00
2023-06-22T13:14:26.443Z,10.14
2023-06-22T13:15:30.408Z,9.29
2023-06-22T13:16:33.918Z,8.50
2023-06-22T13:17:37.363Z,9.14
2023-06-22T13:18:40.792Z,9.57
2023-06-22T13:19:44.106Z,10.14
2023-06-22T13:20:47.497Z,9.71
2023-06-22T13:21:50.955Z,8.57
2023-06-22T13:22:54.352Z,9.43
2023-06-22T13:23:58.246Z,8.71
2023-06-22T13:25:01.640Z,8.13
2023-06-22T13:26:04.920Z,9.57
2023-06-22T13:27:08.060Z,9.43
2023-06-22T13:28:16.185Z,9.33
2023-06-22T13:29:15.165Z,6.62
2023-06-22T13:30:18.334Z,5.43
2023-06-22T13:31:22.008Z,6.00
2023-06-22T13:32:25.502Z,7.71
2023-06-22T13:33:28.798Z,10.00
2023-06-22T13:34:32.171Z,9.57
2023-06-22T13:35:35.495Z,8.57
2023-06-22T13:36:38.769Z,7.57
2023-06-22T13:37:41.984Z,6.00
2023-06-22T13:38:45.150Z,8.00
2023-06-22T13:39:48.521Z,7.14
2023-06-22T13:40:51.945Z,6.43
2023-06-22T13:41:55.009Z,7.43
2023-06-22T13:42:58.398Z,7.33
2023-06-22T13:44:01.885Z,6.67
2023-06-22T13:45:05.270Z,8.57
2023-06-22T13:46:08.981Z,5.86
2023-06-22T13:47:12.568Z,5.43
2023-06-22T13:48:15.896Z,6.00
2023-06-22T13:49:19.184Z,4.86
2023-06-22T13:50:22.298Z,6.29
2023-06-22T13:51:25.610Z,7.57
2023-06-22T13:52:28.976Z,6.00
2023-06-22T13:53:32.245Z,6.43
2023-06-22T13:54:43.739Z,7.43